createdAt,value
2022-07-26T00:00:50.625Z,982.8
2022-07-26T00:02:51.629Z,982.9
2022-07-26T00:04:53.183Z,982.9
2022-07-26T00:06:54.287Z,982.9
2022-07-26T00:08:55.325Z,983
2022-07-26T00:10:56.184Z,983
2022-07-26T00:12:57.474Z,983
2022-07-26T00:14:58.484Z,983.1
2022-07-26T00:17:00.002Z,983.1
2022-07-26T00:19:01.287Z,983.1
2022-07-26T00:21:02.683Z,983.1
2022-07-26T00:23:04.619Z,983.1
2022-07-26T00:25:06.135Z,983.2
2022-07-26T00:27:07.603Z,983.2
2022-07-26T00:29:08.968Z,983.2
2022-07-26T00:31:09.848Z,983.2
2022-07-26T00:33:11.229Z,983.1
2022-07-26T00:35:12.728Z,983.1
2022-07-26T00:37:17.147Z,983.2
2022-07-26T00:39:15.563Z,983.2
2022-07-26T00:41:16.901Z,983.2
2022-07-26T00:43:18.137Z,983.2
2022-07-26T00:45:19.658Z,983.1
2022-07-26T00:47:21.318Z,983.1
2022-07-26T00:49:22.577Z,983.2
2022-07-26T00:51:23.676Z,983.2
2022-07-26T00:53:24.999Z,983.2
2022-07-26T00:55:26.384Z,983.1
2022-07-26T00:59:29.571Z,983
2022-07-26T01:01:31.262Z,983.1
2022-07-26T01:03:36.503Z,983.2
2022-07-26T01:05:33.654Z,983.2
2022-07-26T01:07:34.526Z,983.2
2022-07-26T01:09:36.302Z,983.3
2022-07-26T01:11:37.994Z,983.3
2022-07-26T01:13:39.221Z,983.3
2022-07-26T01:15:40.877Z,983.3
2022-07-26T01:17:41.924Z,983.2
2022-07-26T01:19:43.219Z,983.1
2022-07-26T01:21:44.854Z,983
2022-07-26T01:23:45.850Z,983
2022-07-26T01:25:48.691Z,983
2022-07-26T01:27:48.266Z,983
2022-07-26T01:29:50.103Z,983
2022-07-26T01:31:51.002Z,983
2022-07-26T01:33:52.430Z,983.1
2022-07-26T01:35:53.795Z,983
2022-07-26T01:37:54.773Z,983.1
2022-07-26T01:39:56.315Z,983
2022-07-26T01:41:57.203Z,983.1
2022-07-26T01:43:58.152Z,983.1
2022-07-26T01:45:59.421Z,983.1
2022-07-26T01:48:01.187Z,983.1
2022-07-26T01:50:02.192Z,983.1
2022-07-26T01:52:03.142Z,983.1
2022-07-26T01:54:04.420Z,983.2
2022-07-26T01:56:05.861Z,983.2
2022-07-26T01:58:07.011Z,983.2
2022-07-26T02:00:08.056Z,983.2
2022-07-26T02:02:09.673Z,983.2
2022-07-26T02:04:11.400Z,983.3
2022-07-26T02:06:12.865Z,983.3
2022-07-26T02:08:13.960Z,983.2
2022-07-26T02:10:15.104Z,983.3
2022-07-26T02:12:16.705Z,983.3
2022-07-26T02:14:25.245Z,983.3
2022-07-26T02:16:19.349Z,983.3
2022-07-26T02:18:21.107Z,983.2
2022-07-26T02:20:22.185Z,983.3
2022-07-26T02:24:24.873Z,983.2
2022-07-26T02:26:26.107Z,983.3
2022-07-26T02:28:27.737Z,983.2
2022-07-26T02:30:29.321Z,983.3
2022-07-26T02:32:30.992Z,983.3
2022-07-26T02:34:33.993Z,983.3
2022-07-26T02:38:35.696Z,983.3
2022-07-26T02:40:37.214Z,983.2
2022-07-26T02:42:38.989Z,983.2
2022-07-26T02:44:40.169Z,983.3
2022-07-26T02:46:41.344Z,983.1
2022-07-26T02:47:25.135Z,983.1
2022-07-26T02:51:28.177Z,983.1
2022-07-26T02:53:29.060Z,983.1
2022-07-26T02:55:30.191Z,983.1
2022-07-26T02:57:31.175Z,983.1
2022-07-26T02:59:32.479Z,983.1
2022-07-26T03:01:34.113Z,983.1
2022-07-26T03:03:36.501Z,983.1
2022-07-26T03:07:38.657Z,983.3
2022-07-26T03:09:39.579Z,983.1
2022-07-26T03:11:40.693Z,983.1
2022-07-26T03:13:41.708Z,983.2
2022-07-26T03:15:42.987Z,983.2
2022-07-26T03:17:44.302Z,983.1
2022-07-26T03:19:45.509Z,983.1
2022-07-26T03:21:47.177Z,983.1
2022-07-26T03:23:48.244Z,983.1
2022-07-26T03:25:49.398Z,983.2
2022-07-26T03:27:50.675Z,983.2
2022-07-26T03:29:52.100Z,983.2
2022-07-26T03:31:53.434Z,983.1
2022-07-26T03:33:57.473Z,983.2
2022-07-26T03:35:56.871Z,983.2
2022-07-26T03:37:58.209Z,983.2
2022-07-26T03:39:59.537Z,983.1
2022-07-26T03:42:00.717Z,983.1
2022-07-26T03:44:02.205Z,983
2022-07-26T03:46:03.429Z,983
2022-07-26T03:50:06.480Z,983.1
2022-07-26T03:52:08.066Z,983
2022-07-26T03:54:09.178Z,983.1
2022-07-26T03:56:10.803Z,983.1
2022-07-26T03:58:11.824Z,983.2
2022-07-26T04:00:13.290Z,983.1
2022-07-26T04:02:15.033Z,983.1
2022-07-26T04:04:16.851Z,983.1
2022-07-26T04:06:18.137Z,983.1
2022-07-26T04:08:19.844Z,983.2
2022-07-26T04:10:21.608Z,983.2
2022-07-26T04:12:22.458Z,983.3
2022-07-26T04:14:23.876Z,983.3
2022-07-26T04:16:25.299Z,983.3
2022-07-26T04:18:26.646Z,983.3
2022-07-26T04:20:28.352Z,983.3
2022-07-26T04:22:29.902Z,983.4
2022-07-26T04:24:31.137Z,983.3
2022-07-26T04:26:32.525Z,983.4
2022-07-26T04:28:33.579Z,983.4
2022-07-26T04:32:37.078Z,983.5
2022-07-26T04:34:38.528Z,983.5
2022-07-26T04:36:40.229Z,983.5
2022-07-26T04:38:41.608Z,983.5
2022-07-26T04:42:43.875Z,983.5
2022-07-26T04:44:45.652Z,983.5
2022-07-26T04:46:46.799Z,983.5
2022-07-26T04:48:48.559Z,983.5
2022-07-26T04:50:50.015Z,983.6
2022-07-26T04:52:51.401Z,983.6
2022-07-26T04:54:52.529Z,983.6
2022-07-26T04:56:53.624Z,983.6
2022-07-26T04:58:54.887Z,983.6
2022-07-26T05:01:09.310Z,983.7
2022-07-26T05:02:57.735Z,983.7
2022-07-26T05:04:59.381Z,983.6
2022-07-26T05:07:00.751Z,983.6
2022-07-26T05:09:01.803Z,983.7
2022-07-26T05:11:02.567Z,983.6
2022-07-26T05:13:04.049Z,983.6
2022-07-26T05:15:05.380Z,983.6
2022-07-26T05:17:08.629Z,983.5
2022-07-26T05:19:08.289Z,983.5
2022-07-26T05:21:09.423Z,983.5
2022-07-26T05:23:10.477Z,983.5
2022-07-26T05:25:11.891Z,983.5
2022-07-26T05:27:13.588Z,983.6
2022-07-26T05:29:14.757Z,983.5
2022-07-26T05:31:16.053Z,983.5
2022-07-26T05:33:17.362Z,983.5
2022-07-26T05:35:18.617Z,983.6
2022-07-26T05:37:19.467Z,983.6
2022-07-26T05:39:20.714Z,983.6
2022-07-26T05:41:22.307Z,983.7
2022-07-26T05:43:23.292Z,983.6
2022-07-26T05:45:24.298Z,983.6
2022-07-26T05:47:25.827Z,983.6
2022-07-26T05:49:27.174Z,983.6
2022-07-26T05:51:27.991Z,983.6
2022-07-26T05:53:29.216Z,983.5
2022-07-26T05:55:30.666Z,983.6
2022-07-26T05:57:31.826Z,983.6
2022-07-26T05:59:33.432Z,983.7
2022-07-26T06:01:35.147Z,983.6
2022-07-26T06:03:36.094Z,983.7
2022-07-26T06:05:37.421Z,983.7
2022-07-26T06:07:38.585Z,983.7
2022-07-26T06:09:40.095Z,983.6
2022-07-26T06:11:41.407Z,983.6
2022-07-26T06:13:42.817Z,983.6
2022-07-26T06:15:44.485Z,983.5
2022-07-26T06:17:46.049Z,983.5
2022-07-26T06:19:47.955Z,983.5
2022-07-26T06:21:49.290Z,983.5
2022-07-26T06:23:50.407Z,983.6
2022-07-26T06:25:52.144Z,983.6
2022-07-26T06:27:53.268Z,983.6
2022-07-26T06:29:54.216Z,983.6
2022-07-26T06:31:55.737Z,983.7
2022-07-26T06:33:57.214Z,983.7
2022-07-26T06:35:58.992Z,983.7
2022-07-26T06:38:00.413Z,983.7
2022-07-26T06:40:01.605Z,983.7
2022-07-26T06:42:02.564Z,983.7
2022-07-26T06:44:03.348Z,983.7
2022-07-26T06:46:04.381Z,983.7
2022-07-26T06:48:05.524Z,983.7
2022-07-26T06:52:07.614Z,983.8
2022-07-26T06:54:09.752Z,983.8
2022-07-26T06:56:10.347Z,983.8
2022-07-26T06:58:11.495Z,983.8
2022-07-26T07:00:13.200Z,983.7
2022-07-26T07:02:14.822Z,983.8
2022-07-26T07:04:16.076Z,983.7
2022-07-26T07:06:17.015Z,983.7
2022-07-26T07:08:18.690Z,983.7
2022-07-26T07:10:20.536Z,983.6
2022-07-26T07:12:21.433Z,983.6
2022-07-26T07:14:22.813Z,983.6
2022-07-26T07:16:24.485Z,983.5
2022-07-26T07:18:26.006Z,983.6
2022-07-26T07:20:27.197Z,983.6
2022-07-26T07:22:28.713Z,983.6
2022-07-26T07:24:29.945Z,983.6
2022-07-26T07:26:31.235Z,983.5
2022-07-26T07:28:32.301Z,983.6
2022-07-26T07:30:33.935Z,983.6
2022-07-26T07:32:35.234Z,983.6
2022-07-26T07:34:36.346Z,983.6
2022-07-26T07:36:37.459Z,983.6
2022-07-26T07:38:38.904Z,983.7
2022-07-26T07:40:39.859Z,983.6
2022-07-26T07:42:41.162Z,983.6
2022-07-26T07:44:42.041Z,983.6
2022-07-26T07:46:42.927Z,983.5
2022-07-26T07:48:47.459Z,983.6
2022-07-26T07:50:45.890Z,983.6
2022-07-26T07:54:49.111Z,983.5
2022-07-26T07:56:50.801Z,983.6
2022-07-26T07:58:52.477Z,983.5
2022-07-26T08:00:53.340Z,983.5
2022-07-26T08:02:54.446Z,983.6
2022-07-26T08:04:55.446Z,983.5
2022-07-26T08:06:57.131Z,983.6
2022-07-26T08:08:58.171Z,983.6
2022-07-26T08:10:59.763Z,983.5
2022-07-26T08:13:01.103Z,983.6
2022-07-26T08:15:07.143Z,983.5
2022-07-26T08:17:03.940Z,983.5
2022-07-26T08:19:05.211Z,983.6
2022-07-26T08:21:06.771Z,983.7
2022-07-26T08:23:08.527Z,983.6
2022-07-26T08:25:09.691Z,983.6
2022-07-26T08:27:11.237Z,983.7
2022-07-26T08:29:12.827Z,983.7
2022-07-26T08:31:13.962Z,983.6
2022-07-26T08:33:15.074Z,983.6
2022-07-26T08:35:17.115Z,983.6
2022-07-26T08:37:17.941Z,983.7
2022-07-26T08:39:18.735Z,983.8
2022-07-26T08:41:19.708Z,983.7
2022-07-26T08:43:20.839Z,983.7
2022-07-26T08:45:22.401Z,983.7
2022-07-26T08:47:35.604Z,983.7
2022-07-26T08:49:24.972Z,983.7
2022-07-26T08:53:27.177Z,983.7
2022-07-26T08:55:32.304Z,983.7
2022-07-26T08:57:30.162Z,983.8
2022-07-26T08:59:31.322Z,983.6
2022-07-26T09:01:32.529Z,983.7
2022-07-26T09:03:33.832Z,983.9
2022-07-26T09:05:35.121Z,983.8
2022-07-26T09:07:36.917Z,983.7
2022-07-26T09:09:37.865Z,983.9
2022-07-26T09:11:39.539Z,983.9
2022-07-26T09:13:40.628Z,983.8
2022-07-26T09:15:42.082Z,983.8
2022-07-26T09:17:43.120Z,983.8
2022-07-26T09:19:44.357Z,983.8
2022-07-26T09:21:45.853Z,983.8
2022-07-26T09:23:47.273Z,983.8
2022-07-26T09:25:48.521Z,983.7
2022-07-26T09:27:49.529Z,983.8
2022-07-26T09:29:50.999Z,983.9
2022-07-26T09:31:52.450Z,983.9
2022-07-26T09:34:37.335Z,983.9
2022-07-26T09:36:38.396Z,983.7
2022-07-26T09:38:39.469Z,983.9
2022-07-26T09:40:40.662Z,983.9
2022-07-26T09:42:41.666Z,984
2022-07-26T09:44:48.158Z,983.9
2022-07-26T09:46:44.147Z,983.8
2022-07-26T09:49:08.694Z,984
2022-07-26T09:50:46.927Z,984
2022-07-26T09:52:48.299Z,983.9
2022-07-26T09:54:49.771Z,984
2022-07-26T09:56:51.204Z,984
2022-07-26T09:58:52.775Z,983.8
2022-07-26T10:00:57.675Z,984
2022-07-26T10:02:55.907Z,984
2022-07-26T10:04:57.522Z,983.9
2022-07-26T10:06:58.651Z,984
2022-07-26T10:08:59.717Z,983.9
2022-07-26T10:11:00.749Z,984
2022-07-26T10:13:01.857Z,983.9
2022-07-26T10:15:03.401Z,984
2022-07-26T10:17:04.916Z,984
2022-07-26T10:19:06.200Z,984
2022-07-26T10:21:07.071Z,984
2022-07-26T10:25:09.831Z,984
2022-07-26T10:29:12.169Z,983.9
2022-07-26T10:31:13.513Z,983.9
2022-07-26T10:33:14.743Z,984.1
2022-07-26T10:35:16.073Z,984
2022-07-26T10:37:16.894Z,983.9
2022-07-26T10:41:19.848Z,984
2022-07-26T10:43:39.957Z,984.1
2022-07-26T10:45:22.448Z,984.1
2022-07-26T10:47:23.426Z,984.1
2022-07-26T10:49:24.864Z,984.1
2022-07-26T10:51:26.394Z,984.2
2022-07-26T10:55:28.255Z,984.3
2022-07-26T10:57:29.085Z,984.2
2022-07-26T10:59:53.551Z,984.2
2022-07-26T11:01:32.091Z,984.3
2022-07-26T11:05:34.757Z,984.2
2022-07-26T11:07:36.498Z,984.2
2022-07-26T11:09:37.462Z,984.1
2022-07-26T11:11:39.177Z,984.1
2022-07-26T11:13:40.850Z,984.1
2022-07-26T11:15:42.034Z,984.2
2022-07-26T11:17:43.651Z,984.1
2022-07-26T11:19:45.108Z,984.3
2022-07-26T11:21:46.789Z,984.3
2022-07-26T11:23:47.916Z,984.2
2022-07-26T11:25:48.806Z,984.2
2022-07-26T11:27:49.959Z,984.2
2022-07-26T11:29:50.866Z,984.3
2022-07-26T11:31:58.112Z,984.2
2022-07-26T11:35:55.671Z,984.1
2022-07-26T11:38:02.694Z,984.2
2022-07-26T11:39:58.591Z,984.2
2022-07-26T11:41:59.525Z,984.2
2022-07-26T11:44:02.425Z,984.3
2022-07-26T11:46:02.150Z,984.3
2022-07-26T11:48:03.535Z,984.1
2022-07-26T11:50:21.809Z,984.2
2022-07-26T11:52:06.164Z,984.3
2022-07-26T11:54:07.101Z,984.2
2022-07-26T11:56:08.257Z,984.1
2022-07-26T11:58:09.132Z,984.2
2022-07-26T12:00:10.226Z,984.1
2022-07-26T12:02:11.990Z,984.1
2022-07-26T12:04:13.420Z,984.1
2022-07-26T12:06:13.998Z,984.2
2022-07-26T12:08:14.908Z,984
2022-07-26T12:10:16.402Z,984
2022-07-26T12:12:18.116Z,984.1
2022-07-26T12:14:19.655Z,984.1
2022-07-26T12:16:20.454Z,984
2022-07-26T12:18:21.834Z,984
2022-07-26T12:20:23.502Z,984.1
2022-07-26T12:22:24.692Z,984.1
2022-07-26T12:24:25.819Z,984.1
2022-07-26T12:26:26.841Z,984.1
2022-07-26T12:28:27.741Z,984.1
2022-07-26T12:30:30.356Z,984
2022-07-26T12:32:30.819Z,984
2022-07-26T12:34:32.164Z,984
2022-07-26T12:36:33.199Z,983.9
2022-07-26T12:38:33.992Z,983.9
2022-07-26T12:40:35.321Z,984
2022-07-26T12:42:36.928Z,984
2022-07-26T12:46:39.758Z,983.9
2022-07-26T12:48:40.682Z,983.9
2022-07-26T12:50:42.086Z,983.8
2022-07-26T12:52:43.498Z,983.9
2022-07-26T12:54:44.755Z,983.9
2022-07-26T12:56:46.575Z,983.8
2022-07-26T12:58:48.107Z,983.8
2022-07-26T13:00:49.849Z,983.7
2022-07-26T13:02:51.597Z,983.9
2022-07-26T13:04:56.856Z,983.7
2022-07-26T13:06:54.687Z,983.7
2022-07-26T13:08:55.841Z,983.8
2022-07-26T13:10:59.932Z,983.7
2022-07-26T13:12:58.108Z,983.6
2022-07-26T13:14:59.808Z,983.6
2022-07-26T13:17:01.066Z,983.7
2022-07-26T13:19:02.098Z,983.7
2022-07-26T13:21:02.908Z,983.7
2022-07-26T13:23:04.205Z,983.8
2022-07-26T13:25:06.256Z,983.7
2022-07-26T13:27:06.281Z,983.7
2022-07-26T13:29:07.754Z,983.7
2022-07-26T13:31:10.052Z,983.8
2022-07-26T13:33:10.455Z,983.8
2022-07-26T13:35:11.230Z,983.7
2022-07-26T13:37:12.410Z,983.7
2022-07-26T13:39:14.022Z,983.7
2022-07-26T13:41:15.097Z,983.8
2022-07-26T13:43:16.730Z,983.7
2022-07-26T13:45:17.955Z,983.7
2022-07-26T13:47:19.319Z,983.7
2022-07-26T13:51:21.872Z,983.5
2022-07-26T13:53:23.271Z,983.6
2022-07-26T13:55:24.988Z,983.5
2022-07-26T13:57:39.275Z,983.6
2022-07-26T13:59:27.218Z,983.6
2022-07-26T14:01:42.221Z,983.7
2022-07-26T14:03:33.534Z,983.6
2022-07-26T14:05:30.767Z,983.6
2022-07-26T14:07:32.160Z,983.7
2022-07-26T14:09:33.197Z,983.7
2022-07-26T14:11:34.917Z,983.6
2022-07-26T14:13:35.716Z,983.6
2022-07-26T14:15:36.701Z,983.6
2022-07-26T14:17:37.640Z,983.7
2022-07-26T14:19:38.496Z,983.7
2022-07-26T14:21:46.903Z,983.7
2022-07-26T14:23:41.660Z,983.7
2022-07-26T14:25:42.986Z,983.6
2022-07-26T14:27:44.593Z,983.7
2022-07-26T14:29:45.849Z,983.7
2022-07-26T14:31:47.428Z,983.7
2022-07-26T14:33:48.551Z,983.8
2022-07-26T14:35:49.475Z,983.7
2022-07-26T14:37:50.880Z,983.8
2022-07-26T14:39:51.759Z,983.8
2022-07-26T14:41:53.113Z,983.8
2022-07-26T14:43:54.432Z,983.8
2022-07-26T14:45:55.609Z,983.7
2022-07-26T14:47:56.829Z,983.8
2022-07-26T14:49:59.620Z,983.6
2022-07-26T14:51:59.194Z,983.6
2022-07-26T14:54:00.589Z,983.6
2022-07-26T14:56:01.553Z,983.7
2022-07-26T14:58:02.533Z,983.7
2022-07-26T15:00:03.853Z,983.7
2022-07-26T15:02:05.917Z,983.6
2022-07-26T15:04:06.122Z,983.6
2022-07-26T15:08:08.385Z,983.8
2022-07-26T15:10:09.963Z,983.7
2022-07-26T15:12:11.573Z,983.6
2022-07-26T15:14:13.566Z,983.6
2022-07-26T15:16:14.326Z,983.6
2022-07-26T15:18:15.317Z,983.6
2022-07-26T15:20:16.426Z,983.6
2022-07-26T15:22:17.467Z,983.7
2022-07-26T15:24:18.542Z,983.7
2022-07-26T15:26:20.273Z,983.7
2022-07-26T15:28:21.865Z,983.6
2022-07-26T15:32:24.431Z,983.7
2022-07-26T15:34:25.959Z,983.6
2022-07-26T15:36:27.002Z,983.6
2022-07-26T15:38:28.035Z,983.7
2022-07-26T15:40:29.740Z,983.6
2022-07-26T15:42:31.185Z,983.7
2022-07-26T15:44:32.769Z,983.6
2022-07-26T15:46:34.560Z,983.7
2022-07-26T15:48:36.079Z,983.7
2022-07-26T15:50:37.060Z,983.8
2022-07-26T15:52:38.630Z,983.7
2022-07-26T15:54:39.849Z,983.7
2022-07-26T15:56:40.874Z,983.7
2022-07-26T15:58:42.602Z,983.7
2022-07-26T16:00:43.979Z,983.6
2022-07-26T16:02:45.135Z,983.7
2022-07-26T16:04:46.359Z,983.6
2022-07-26T16:09:13.744Z,983.7
2022-07-26T16:10:50.512Z,983.7
2022-07-26T16:12:52.228Z,983.6
2022-07-26T16:14:53.809Z,983.6
2022-07-26T16:16:54.750Z,983.6
2022-07-26T16:17:38.418Z,983.6
2022-07-26T16:19:40.144Z,983.5
2022-07-26T16:21:49.280Z,983.6
2022-07-26T16:23:42.716Z,983.6
2022-07-26T16:25:43.629Z,983.5
2022-07-26T16:27:45.394Z,983.5
2022-07-26T16:29:51.771Z,983.5
2022-07-26T16:31:49.274Z,983.4
2022-07-26T16:35:52.316Z,983.5
2022-07-26T16:37:53.219Z,983.4
2022-07-26T16:39:54.916Z,983.4
2022-07-26T16:41:56.190Z,983.4
2022-07-26T16:45:58.655Z,983.4
2022-07-26T16:48:00.166Z,983.4
2022-07-26T16:52:02.585Z,983.4
2022-07-26T16:54:03.572Z,983.5
2022-07-26T16:56:04.759Z,983.5
2022-07-26T16:58:06.510Z,983.6
2022-07-26T17:00:07.646Z,983.5
2022-07-26T17:02:09.265Z,983.4
2022-07-26T17:04:10.346Z,983.6
2022-07-26T17:06:11.844Z,983.5
2022-07-26T17:08:13.579Z,983.5
2022-07-26T17:10:14.488Z,983.4
2022-07-26T17:12:16.003Z,983.6
2022-07-26T17:14:17.749Z,983.5
2022-07-26T17:16:21.528Z,983.5
2022-07-26T17:18:20.132Z,983.5
2022-07-26T17:20:21.236Z,983.4
2022-07-26T17:22:22.331Z,983.5
2022-07-26T17:24:23.666Z,983.5
2022-07-26T17:26:24.901Z,983.6
2022-07-26T17:28:26.163Z,983.5
2022-07-26T17:30:27.863Z,983.6
2022-07-26T17:32:29.641Z,983.4
2022-07-26T17:34:30.795Z,983.6
2022-07-26T17:36:32.531Z,983.6
2022-07-26T17:38:34.305Z,983.5
2022-07-26T17:40:35.378Z,983.5
2022-07-26T17:42:37.001Z,983.5
2022-07-26T17:44:38.213Z,983.5
2022-07-26T17:46:39.749Z,983.5
2022-07-26T17:50:42.525Z,983.5
2022-07-26T17:52:43.476Z,983.5
2022-07-26T17:54:44.673Z,983.6
2022-07-26T17:56:46.230Z,983.6
2022-07-26T17:58:47.749Z,983.6
2022-07-26T18:00:48.863Z,983.7
2022-07-26T18:02:50.159Z,983.6
2022-07-26T18:04:51.551Z,983.6
2022-07-26T18:06:53.174Z,983.6
2022-07-26T18:08:54.671Z,983.5
2022-07-26T18:10:55.608Z,983.6
2022-07-26T18:12:56.526Z,983.6
2022-07-26T18:16:59.448Z,983.5
2022-07-26T18:19:00.675Z,983.6
2022-07-26T18:21:02.012Z,983.5
2022-07-26T18:23:03.608Z,983.5
2022-07-26T18:25:05.087Z,983.6
2022-07-26T18:27:06.518Z,983.6
2022-07-26T18:29:08.232Z,983.5
2022-07-26T18:31:09.168Z,983.6
2022-07-26T18:33:10.608Z,983.5
2022-07-26T18:35:11.972Z,983.6
2022-07-26T18:37:13.679Z,983.6
2022-07-26T18:39:15.206Z,983.5
2022-07-26T18:41:17.025Z,983.6
2022-07-26T18:43:18.280Z,983.6
2022-07-26T18:45:19.241Z,983.6
2022-07-26T18:47:20.752Z,983.7
2022-07-26T18:49:21.792Z,983.6
2022-07-26T18:51:22.695Z,983.7
2022-07-26T18:53:23.588Z,983.7
2022-07-26T18:57:25.916Z,983.6
2022-07-26T18:59:27.459Z,983.6
2022-07-26T19:01:28.414Z,983.6
2022-07-26T19:03:30.153Z,983.6
2022-07-26T19:05:32.526Z,983.6
2022-07-26T19:07:32.300Z,983.6
2022-07-26T19:09:33.529Z,983.7
2022-07-26T19:11:36.294Z,983.7
2022-07-26T19:13:35.813Z,983.6
2022-07-26T19:15:37.595Z,983.8
2022-07-26T19:17:39.100Z,983.7
2022-07-26T19:19:40.044Z,983.8
2022-07-26T19:21:41.615Z,983.8
2022-07-26T19:23:42.659Z,983.8
2022-07-26T19:25:44.197Z,983.9
2022-07-26T19:27:45.407Z,983.9
2022-07-26T19:29:46.731Z,983.9
2022-07-26T19:33:49.173Z,984
2022-07-26T19:35:50.609Z,983.9
2022-07-26T19:37:52.183Z,984
2022-07-26T19:39:53.953Z,984
2022-07-26T19:41:55.518Z,984
2022-07-26T19:43:57.006Z,984
2022-07-26T19:45:57.898Z,984.1
2022-07-26T19:47:59.540Z,984.2
2022-07-26T19:50:00.544Z,984.1
2022-07-26T19:52:02.106Z,984.1
2022-07-26T19:54:03.733Z,984
2022-07-26T19:56:04.612Z,984.2
2022-07-26T19:58:05.688Z,984.1
2022-07-26T20:00:07.326Z,984.1
2022-07-26T20:02:08.702Z,984.2
2022-07-26T20:04:10.092Z,984.2
2022-07-26T20:06:11.037Z,984.2
2022-07-26T20:08:12.682Z,984.2
2022-07-26T20:10:14.156Z,984.3
2022-07-26T20:12:15.105Z,984.2
2022-07-26T20:14:16.475Z,984.2
2022-07-26T20:16:18.198Z,984.2
2022-07-26T20:18:19.185Z,984.3
2022-07-26T20:20:20.169Z,984.3
2022-07-26T20:22:21.637Z,984.3
2022-07-26T20:24:23.236Z,984.3
2022-07-26T20:26:24.394Z,984.3
2022-07-26T20:28:26.031Z,984.3
2022-07-26T20:30:27.989Z,984.3
2022-07-26T20:32:29.301Z,984.4
2022-07-26T20:34:30.836Z,984.3
2022-07-26T20:38:33.051Z,984.3
2022-07-26T20:40:34.247Z,984.4
2022-07-26T20:42:35.612Z,984.4
2022-07-26T20:44:37.121Z,984.4
2022-07-26T20:46:38.922Z,984.4
2022-07-26T20:48:40.348Z,984.4
2022-07-26T20:50:41.307Z,984.4
2022-07-26T20:52:42.732Z,984.4
2022-07-26T20:56:46.082Z,984.4
2022-07-26T20:58:47.745Z,984.3
2022-07-26T21:00:49.330Z,984.3
2022-07-26T21:02:50.942Z,984.4
2022-07-26T21:04:52.070Z,984.4
2022-07-26T21:06:53.303Z,984.4
2022-07-26T21:08:54.557Z,984.4
2022-07-26T21:10:55.688Z,984.5
2022-07-26T21:12:57.459Z,984.4
2022-07-26T21:17:00.815Z,984.4
2022-07-26T21:19:01.823Z,984.4
2022-07-26T21:21:03.019Z,984.5
2022-07-26T21:23:16.580Z,984.4
2022-07-26T21:25:05.566Z,984.5
2022-07-26T21:27:07.174Z,984.4
2022-07-26T21:29:08.611Z,984.5
2022-07-26T21:31:09.708Z,984.4
2022-07-26T21:33:10.725Z,984.4
2022-07-26T21:35:12.248Z,984.4
2022-07-26T21:37:13.540Z,984.4
2022-07-26T21:39:14.809Z,984.4
2022-07-26T21:41:16.163Z,984.4
2022-07-26T21:45:18.781Z,984.4
2022-07-26T21:47:20.567Z,984.4
2022-07-26T21:49:21.736Z,984.5
2022-07-26T21:51:23.398Z,984.5
2022-07-26T21:53:25.034Z,984.5
2022-07-26T21:55:26.867Z,984.6
2022-07-26T21:57:28.493Z,984.5
2022-07-26T21:59:29.436Z,984.4
2022-07-26T22:01:31.011Z,984.4
2022-07-26T22:03:31.981Z,984.4
2022-07-26T22:05:33.521Z,984.5
2022-07-26T22:07:34.939Z,984.5
2022-07-26T22:09:36.055Z,984.5
2022-07-26T22:11:37.374Z,984.5
2022-07-26T22:13:38.636Z,984.5
2022-07-26T22:15:40.071Z,984.6
2022-07-26T22:17:41.422Z,984.5
2022-07-26T22:19:43.181Z,984.6
2022-07-26T22:21:44.129Z,984.6
2022-07-26T22:23:45.024Z,984.7
2022-07-26T22:25:46.043Z,984.5
2022-07-26T22:27:47.635Z,984.5
2022-07-26T22:29:48.672Z,984.5
2022-07-26T22:31:50.374Z,984.5
2022-07-26T22:33:51.644Z,984.5
2022-07-26T22:35:52.974Z,984.5
2022-07-26T22:37:54.189Z,984.5
2022-07-26T22:39:55.781Z,984.5
2022-07-26T22:42:14.654Z,984.5
2022-07-26T22:43:58.731Z,984.5
2022-07-26T22:46:00.623Z,984.5
2022-07-26T22:48:02.121Z,984.5
2022-07-26T22:50:03.668Z,984.5
2022-07-26T22:52:05.240Z,984.5
2022-07-26T22:54:07.068Z,984.6
2022-07-26T22:56:08.711Z,984.5
2022-07-26T22:58:10.278Z,984.5
2022-07-26T23:00:12.151Z,984.5
2022-07-26T23:03:19.464Z,984.5
2022-07-26T23:05:16.743Z,984.5
2022-07-26T23:07:18.561Z,984.5
2022-07-26T23:09:19.839Z,984.4
2022-07-26T23:11:21.631Z,984.5
2022-07-26T23:15:23.702Z,984.5
2022-07-26T23:17:24.982Z,984.5
2022-07-26T23:19:26.226Z,984.5
2022-07-26T23:21:27.769Z,984.5
2022-07-26T23:25:29.711Z,984.5
2022-07-26T23:27:31.447Z,984.7
2022-07-26T23:29:32.497Z,984.7
2022-07-26T23:31:34.134Z,984.7
2022-07-26T23:33:51.074Z,984.7
2022-07-26T23:35:37.176Z,984.7
2022-07-26T23:37:39.065Z,984.6
2022-07-26T23:39:40.818Z,984.6
2022-07-26T23:41:42.150Z,984.6
2022-07-26T23:43:43.525Z,984.7
2022-07-26T23:45:44.566Z,984.6
2022-07-26T23:47:45.557Z,984.6
2022-07-26T23:49:46.693Z,984.7
2022-07-26T23:51:47.642Z,984.7
2022-07-26T23:53:49.238Z,984.7
2022-07-26T23:55:50.562Z,984.7
2022-07-26T23:57:52.135Z,984.7
2022-07-26T23:59:53.419Z,984.7
